Time;durP1;ratioP1;P1;durP2;ratioP2;P2;SDS_P1;SDS_P2;PMS_P1;PMS_P2;Temp;Humidity;BMP_temperature;BMP_pressure;BME280_temperature;BME280_humidity;BME280_pressure;Samples;Min_cycle;Max_cycle;Signal;HPM_P1;HPM_P2
2022/03/18 00:00:44;;;;;;;29.87;14.60;;;4.60;96.80;;;;;;4935548;28;20407;-77
2022/03/18 00:03:09;;;;;;;22.77;13.60;;;4.70;98.40;;;;;;4935621;28;20419;-77
2022/03/18 00:05:35;;;;;;;30.63;14.10;;;4.80;98.20;;;;;;4934124;28;20408;-76
2022/03/18 00:08:01;;;;;;;26.25;14.23;;;5.00;97.60;;;;;;4933871;28;20416;-77
2022/03/18 00:10:28;;;;;;;24.33;13.20;;;5.40;90.80;;;;;;4939698;28;20404;-77
2022/03/18 00:12:53;;;;;;;23.20;13.55;;;5.30;86.90;;;;;;4940262;28;20782;-77
2022/03/18 00:15:23;;;;;;;26.75;13.85;;;5.10;85.60;;;;;;4934204;28;20400;-76
2022/03/18 00:17:49;;;;;;;25.48;15.23;;;4.80;87.80;;;;;;4931121;29;20431;-77
2022/03/18 00:20:15;;;;;;;28.85;14.35;;;4.60;90.70;;;;;;4920822;28;20403;-78
2022/03/18 00:22:42;;;;;;;26.70;13.82;;;4.50;94.50;;;;;;4922324;28;20949;-79
2022/03/18 00:25:09;;;;;;;27.55;14.73;;;4.40;95.20;;;;;;4941960;28;20395;-78
2022/03/18 00:27:35;;;;;;;29.98;15.07;;;4.30;97.50;;;;;;4934560;29;20407;-74
2022/03/18 00:30:01;;;;;;;26.80;14.15;;;4.30;99.00;;;;;;4933491;28;20392;-75
2022/03/18 00:32:27;;;;;;;21.90;13.20;;;4.40;99.60;;;;;;4932802;28;20502;-74
2022/03/18 00:34:52;;;;;;;31.13;13.37;;;4.50;99.90;;;;;;4935100;28;20538;-74
2022/03/18 00:37:18;;;;;;;28.20;13.82;;;4.60;99.90;;;;;;4927694;28;20853;-74
2022/03/18 00:39:43;;;;;;;24.83;13.13;;;5.00;95.00;;;;;;4933068;28;20777;-74
2022/03/18 00:42:10;;;;;;;23.90;13.18;;;5.10;91.20;;;;;;4933193;29;20412;-76
2022/03/18 00:44:36;;;;;;;26.00;14.07;;;4.90;88.30;;;;;;4933333;29;20889;-74
2022/03/18 00:47:01;;;;;;;23.27;13.17;;;4.70;88.50;;;;;;4933730;29;20403;-74
2022/03/18 00:52:14;;;;;;;23.75;13.13;;;4.50;96.10;;;;;;4928519;29;20797;-74
2022/03/18 00:54:42;;;;;;;25.30;11.80;;;4.90;87.80;;;;;;4932732;28;20411;-73
2022/03/18 00:57:09;;;;;;;22.90;12.93;;;5.00;79.20;;;;;;4933082;28;20446;-73
2022/03/18 00:59:35;;;;;;;26.00;13.50;;;4.90;81.50;;;;;;4934408;28;20436;-74
2022/03/18 01:02:02;;;;;;;25.45;12.27;;;4.70;84.80;;;;;;4934436;29;20462;-73
2022/03/18 01:04:30;;;;;;;26.02;12.68;;;4.80;87.40;;;;;;4933625;29;20400;-72
2022/03/18 01:06:57;;;;;;;25.60;13.32;;;4.80;87.50;;;;;;4932178;28;20776;-74
2022/03/18 01:09:24;;;;;;;29.37;13.90;;;4.80;90.50;;;;;;4932708;28;20416;-74
2022/03/18 01:11:52;;;;;;;28.23;14.30;;;5.00;85.60;;;;;;4932582;28;20411;-74
2022/03/18 01:14:19;;;;;;;24.40;13.13;;;5.00;82.40;;;;;;4932812;28;20416;-74
2022/03/18 01:16:45;;;;;;;27.30;14.47;;;4.90;81.10;;;;;;4935609;28;20442;-74
2022/03/18 01:19:11;;;;;;;20.77;13.35;;;4.70;82.60;;;;;;4930645;28;20467;-74
2022/03/18 01:21:37;;;;;;;23.98;13.45;;;4.50;84.70;;;;;;4915590;28;20465;-74
2022/03/18 01:24:04;;;;;;;28.27;14.40;;;4.20;87.10;;;;;;4926599;29;20427;-74
2022/03/18 01:26:30;;;;;;;25.70;13.90;;;4.00;90.80;;;;;;4932487;28;20424;-75
2022/03/18 01:28:56;;;;;;;23.17;13.03;;;3.90;95.40;;;;;;4932933;28;20923;-74
2022/03/18 01:31:23;;;;;;;25.08;14.43;;;3.90;96.60;;;;;;4932969;28;20465;-75
2022/03/18 01:33:49;;;;;;;24.42;13.57;;;4.10;99.90;;;;;;4932866;28;20837;-74
2022/03/18 01:36:14;;;;;;;25.02;12.98;;;4.30;98.20;;;;;;4916446;28;20446;-74
2022/03/18 01:38:40;;;;;;;24.57;13.67;;;4.50;90.60;;;;;;4937150;28;20411;-75
2022/03/18 01:41:06;;;;;;;22.67;12.70;;;4.60;85.80;;;;;;4940270;28;20400;-77
2022/03/18 01:43:41;;;;;;;29.60;13.77;;;4.70;82.90;;;;;;4938427;28;20446;-76
2022/03/18 01:46:07;;;;;;;31.00;13.98;;;4.70;83.90;;;;;;4929162;28;20403;-76
2022/03/18 01:48:33;;;;;;;27.80;13.52;;;4.80;82.60;;;;;;4934590;28;20405;-77
2022/03/18 01:50:58;;;;;;;28.00;13.97;;;4.80;81.00;;;;;;4933114;28;20415;-75
2022/03/18 01:53:24;;;;;;;23.20;12.70;;;4.80;77.90;;;;;;4932309;28;20408;-76
2022/03/18 01:55:50;;;;;;;22.90;13.73;;;4.80;79.90;;;;;;4931370;29;20406;-75
2022/03/18 01:58:15;;;;;;;25.90;14.47;;;4.70;81.80;;;;;;4932963;28;20457;-76
2022/03/18 02:00:41;;;;;;;25.13;13.50;;;4.70;83.70;;;;;;4932783;28;20466;-76
2022/03/18 02:03:07;;;;;;;21.73;12.97;;;4.70;77.90;;;;;;4932074;29;20422;-76
2022/03/18 02:05:33;;;;;;;27.83;13.88;;;4.70;77.70;;;;;;4932674;28;20953;-75
2022/03/18 02:08:01;;;;;;;18.80;13.35;;;4.60;78.30;;;;;;4942741;28;20511;-76
2022/03/18 02:10:26;;;;;;;27.23;13.85;;;4.60;81.30;;;;;;4946656;28;20517;-75
2022/03/18 02:12:52;;;;;;;22.52;13.32;;;4.60;82.00;;;;;;4915109;28;20408;-75
2022/03/18 02:15:17;;;;;;;23.37;13.73;;;4.60;81.90;;;;;;4928684;28;20403;-76
2022/03/18 02:17:43;;;;;;;24.07;13.80;;;4.60;80.90;;;;;;4934529;28;20461;-75
2022/03/18 02:20:09;;;;;;;25.57;14.50;;;4.60;81.70;;;;;;4931691;28;20482;-76
2022/03/18 02:22:40;;;;;;;26.65;14.15;;;4.50;84.30;;;;;;4932193;28;20430;-76
2022/03/18 02:25:12;;;;;;;27.63;14.10;;;4.40;88.50;;;;;;4926755;28;20407;-76
2022/03/18 02:27:39;;;;;;;25.95;13.60;;;4.40;87.20;;;;;;4932794;28;20429;-76
2022/03/18 02:30:06;;;;;;;30.67;14.17;;;4.50;85.80;;;;;;4933927;29;20400;-76
2022/03/18 02:32:32;;;;;;;30.33;14.80;;;4.40;84.10;;;;;;4934619;28;20412;-76
2022/03/18 02:34:58;;;;;;;24.27;13.40;;;4.40;82.20;;;;;;4934280;29;20447;-76
2022/03/18 02:37:24;;;;;;;32.75;13.93;;;4.50;77.30;;;;;;4923196;28;20415;-76
2022/03/18 02:39:49;;;;;;;28.17;14.68;;;4.50;78.40;;;;;;4939736;28;20419;-76
2022/03/18 02:42:15;;;;;;;30.42;14.98;;;4.50;80.40;;;;;;4922071;28;20427;-75
2022/03/18 02:44:41;;;;;;;31.53;14.63;;;4.50;80.30;;;;;;4943102;28;20411;-75
2022/03/18 02:47:06;;;;;;;30.83;14.20;;;4.50;80.40;;;;;;4939745;28;20407;-77
2022/03/18 02:49:32;;;;;;;26.17;14.18;;;4.40;80.80;;;;;;4934424;28;20908;-76
2022/03/18 02:51:58;;;;;;;25.97;13.90;;;4.20;82.40;;;;;;4933057;29;20561;-77
2022/03/18 02:54:24;;;;;;;28.10;14.25;;;3.90;85.30;;;;;;4937372;28;20431;-77
2022/03/18 02:56:50;;;;;;;24.85;13.43;;;3.80;91.20;;;;;;4938574;28;20410;-77
2022/03/18 02:59:15;;;;;;;26.70;14.27;;;3.70;92.80;;;;;;4935516;29;20407;-76
2022/03/18 03:01:41;;;;;;;31.70;15.70;;;3.50;95.00;;;;;;4921414;28;20415;-77
2022/03/18 03:04:07;;;;;;;27.80;15.48;;;3.60;98.10;;;;;;4921885;28;20430;-77
2022/03/18 03:09:17;;;;;;;25.25;14.60;;;3.80;95.80;;;;;;4946965;28;21299;-77
2022/03/18 03:11:46;;;;;;;29.83;14.73;;;3.70;94.20;;;;;;4946343;28;20422;-77
2022/03/18 03:14:12;;;;;;;22.80;13.75;;;3.60;97.40;;;;;;4922006;28;20408;-76
2022/03/18 03:16:38;;;;;;;29.30;14.23;;;3.80;99.90;;;;;;4931355;28;20400;-76
2022/03/18 03:19:04;;;;;;;28.40;15.00;;;3.80;98.10;;;;;;4930526;28;20435;-76
2022/03/18 03:21:30;;;;;;;22.83;13.77;;;3.50;96.60;;;;;;4931829;28;20415;-76
2022/03/18 03:23:56;;;;;;;35.35;16.70;;;3.40;97.10;;;;;;4931437;28;20510;-76
2022/03/18 03:26:22;;;;;;;30.10;15.38;;;3.20;97.30;;;;;;4931133;28;20404;-76
2022/03/18 03:28:48;;;;;;;34.28;15.75;;;3.00;99.30;;;;;;4930744;28;20407;-76
2022/03/18 03:31:13;;;;;;;31.10;15.23;;;3.00;99.90;;;;;;4932407;28;20502;-76
2022/03/18 03:33:39;;;;;;;24.00;14.70;;;3.20;99.90;;;;;;4931685;28;20490;-77
2022/03/18 03:36:05;;;;;;;28.67;14.83;;;3.30;99.90;;;;;;4931776;28;20403;-75
2022/03/18 03:38:31;;;;;;;26.65;14.77;;;3.20;99.90;;;;;;4931578;28;20407;-76
2022/03/18 03:40:56;;;;;;;45.00;16.27;;;3.00;99.90;;;;;;4931067;28;20404;-76
2022/03/18 03:43:22;;;;;;;34.10;15.47;;;2.90;99.90;;;;;;4933306;29;20818;-77
2022/03/18 03:45:47;;;;;;;32.83;15.02;;;2.90;99.90;;;;;;4932994;28;20443;-76
2022/03/18 03:48:13;;;;;;;27.60;15.43;;;2.90;99.90;;;;;;4932031;28;20767;-75
2022/03/18 03:50:43;;;;;;;26.43;14.70;;;2.80;99.90;;;;;;4936724;28;20418;-75
2022/03/18 03:53:09;;;;;;;26.80;14.98;;;2.90;99.90;;;;;;4936231;28;20411;-75
2022/03/18 03:55:38;;;;;;;25.77;14.98;;;2.70;99.90;;;;;;4930790;28;20404;-76
2022/03/18 03:58:06;;;;;;;25.80;13.93;;;2.70;99.90;;;;;;4929777;28;20461;-77
2022/03/18 04:00:31;;;;;;;25.35;15.23;;;2.60;99.90;;;;;;4932528;29;20408;-76
2022/03/18 04:02:57;;;;;;;29.77;14.40;;;2.60;99.90;;;;;;4912937;28;20426;-75
2022/03/18 04:05:23;;;;;;;26.92;15.15;;;2.70;99.90;;;;;;4912980;28;20396;-76
2022/03/18 04:07:48;;;;;;;25.08;14.20;;;2.60;99.90;;;;;;4934179;28;20913;-76
2022/03/18 04:10:14;;;;;;;23.17;13.57;;;2.70;99.90;;;;;;4933109;28;20414;-76
2022/03/18 04:12:40;;;;;;;23.40;13.70;;;3.00;99.90;;;;;;4929546;29;20924;-76
2022/03/18 04:15:10;;;;;;;26.20;13.87;;;2.90;99.90;;;;;;4924392;28;20458;-75
2022/03/18 04:17:43;;;;;;;24.77;14.18;;;2.70;99.90;;;;;;4956036;28;20408;-75
2022/03/18 04:20:11;;;;;;;26.63;14.05;;;2.50;99.90;;;;;;4929625;28;20931;-76
2022/03/18 04:22:37;;;;;;;27.33;13.90;;;2.50;99.90;;;;;;4930705;28;20427;-75
2022/03/18 04:25:04;;;;;;;28.40;13.63;;;2.50;99.90;;;;;;4930205;28;20408;-76
2022/03/18 04:27:29;;;;;;;27.70;14.10;;;2.50;99.90;;;;;;4935532;28;20430;-77
2022/03/18 04:29:55;;;;;;;27.37;14.33;;;2.60;99.90;;;;;;4941472;28;20404;-77
2022/03/18 04:32:21;;;;;;;21.87;14.00;;;3.00;99.90;;;;;;4934172;28;20457;-77
2022/03/18 04:34:46;;;;;;;22.63;12.50;;;3.00;99.90;;;;;;4932765;28;20407;-76
2022/03/18 04:37:12;;;;;;;22.07;12.30;;;3.00;99.90;;;;;;4932610;28;20811;-76
2022/03/18 04:39:37;;;;;;;25.90;13.32;;;2.90;99.90;;;;;;4914792;28;20431;-76
2022/03/18 04:42:03;;;;;;;32.85;13.70;;;3.10;99.90;;;;;;4930203;28;20428;-76
2022/03/18 04:44:29;;;;;;;36.10;18.30;;;3.10;98.80;;;;;;4933147;29;20404;-77
2022/03/18 04:46:54;;;;;;;32.30;16.40;;;3.10;96.00;;;;;;4937451;28;20407;-77
2022/03/18 04:49:20;;;;;;;32.72;13.55;;;2.80;94.80;;;;;;4937720;28;20407;-77
2022/03/18 04:51:45;;;;;;;34.03;13.10;;;2.60;96.50;;;;;;4934646;28;20505;-77
2022/03/18 04:54:11;;;;;;;27.52;13.45;;;2.50;99.90;;;;;;4934953;28;20407;-77
2022/03/18 04:59:21;;;;;;;23.38;12.80;;;2.50;99.90;;;;;;4934022;29;20406;-77
2022/03/18 05:01:47;;;;;;;25.00;13.30;;;2.80;99.90;;;;;;4933922;28;20423;-77
2022/03/18 05:04:12;;;;;;;21.63;12.50;;;3.00;99.90;;;;;;4933348;28;20507;-76
2022/03/18 05:06:39;;;;;;;22.07;11.60;;;3.20;91.60;;;;;;4936557;28;20581;-76
2022/03/18 05:09:04;;;;;;;24.40;11.40;;;3.30;84.50;;;;;;4937012;28;20404;-77
2022/03/18 05:11:30;;;;;;;22.83;11.40;;;3.40;81.40;;;;;;4934121;28;20438;-77
2022/03/18 05:13:57;;;;;;;20.13;10.93;;;3.40;80.40;;;;;;4926173;28;20827;-77
2022/03/18 05:16:24;;;;;;;22.40;11.25;;;3.40;77.80;;;;;;4933709;29;20494;-76
2022/03/18 05:18:53;;;;;;;21.40;11.32;;;3.40;75.30;;;;;;4933868;29;20602;-77
2022/03/18 05:21:19;;;;;;;28.75;11.05;;;3.40;76.50;;;;;;4927629;29;20824;-76
2022/03/18 05:23:46;;;;;;;20.60;11.32;;;3.30;77.50;;;;;;4933083;29;20403;-75
2022/03/18 05:26:11;;;;;;;23.77;11.55;;;3.30;80.30;;;;;;4938942;28;20853;-77
2022/03/18 05:28:37;;;;;;;29.35;13.30;;;3.20;84.70;;;;;;4939005;28;20400;-76
2022/03/18 05:31:03;;;;;;;25.48;13.48;;;3.20;88.50;;;;;;4933311;28;20416;-75
2022/03/18 05:33:28;;;;;;;22.40;11.83;;;3.20;89.80;;;;;;4933899;28;20470;-77
2022/03/18 05:35:54;;;;;;;25.20;13.07;;;3.20;88.30;;;;;;4935803;28;20408;-77
2022/03/18 05:38:20;;;;;;;25.73;13.90;;;3.00;89.90;;;;;;4943127;28;20396;-75
2022/03/18 05:40:46;;;;;;;31.17;13.55;;;2.80;93.70;;;;;;4941561;28;20418;-76
2022/03/18 05:43:11;;;;;;;25.20;12.50;;;2.90;94.80;;;;;;4922152;28;20427;-76
2022/03/18 05:45:37;;;;;;;28.75;12.18;;;3.10;85.90;;;;;;4951093;28;20572;-76
2022/03/18 05:48:06;;;;;;;24.87;12.43;;;3.20;84.80;;;;;;4943920;28;20498;-77
2022/03/18 05:50:32;;;;;;;23.30;12.50;;;3.20;85.80;;;;;;4934180;28;20419;-75
2022/03/18 05:52:58;;;;;;;18.20;12.00;;;3.00;89.10;;;;;;4915591;28;20411;-76
2022/03/18 05:55:24;;;;;;;28.38;12.65;;;2.70;90.20;;;;;;4933654;28;20415;-76
2022/03/18 05:57:52;;;;;;;25.38;12.60;;;2.80;95.70;;;;;;4933716;28;20412;-77
2022/03/18 06:00:18;;;;;;;30.67;13.30;;;2.60;94.50;;;;;;4934761;28;20408;-76
2022/03/18 06:02:45;;;;;;;25.40;12.50;;;2.40;98.00;;;;;;4932472;29;20924;-76
2022/03/18 06:05:10;;;;;;;26.33;14.35;;;2.40;99.90;;;;;;4941777;28;20839;-77
2022/03/18 06:07:37;;;;;;;30.02;15.30;;;2.40;99.90;;;;;;4937003;28;20419;-78
2022/03/18 06:12:47;;;;;;;27.80;14.27;;;2.70;99.90;;;;;;4934802;29;20414;-78
2022/03/18 06:15:13;;;;;;;26.30;13.73;;;2.50;99.90;;;;;;4919965;28;20794;-79
2022/03/18 06:17:38;;;;;;;28.90;12.87;;;2.40;99.90;;;;;;4934867;28;20415;-77
2022/03/18 06:20:05;;;;;;;24.80;13.40;;;2.60;99.90;;;;;;4933198;28;20450;-78
2022/03/18 06:22:30;;;;;;;26.98;13.55;;;2.70;99.90;;;;;;4918511;28;20420;-76
2022/03/18 06:24:56;;;;;;;24.43;12.50;;;3.10;98.80;;;;;;4935021;28;20427;-77
2022/03/18 06:27:21;;;;;;;22.57;11.60;;;3.40;82.80;;;;;;4936436;28;20455;-78
2022/03/18 06:29:47;;;;;;;23.00;11.53;;;3.50;75.50;;;;;;4936944;28;20412;-78
2022/03/18 06:32:12;;;;;;;25.37;11.47;;;3.60;74.60;;;;;;4934880;28;20407;-78
2022/03/18 06:34:38;;;;;;;22.27;10.35;;;3.70;74.90;;;;;;4937400;28;20920;-77
2022/03/18 06:37:04;;;;;;;29.00;13.70;;;3.60;79.60;;;;;;4938986;29;20415;-76
2022/03/18 06:39:31;;;;;;;27.13;12.45;;;3.30;82.20;;;;;;4942006;28;20491;-76
2022/03/18 06:41:56;;;;;;;33.95;14.02;;;3.20;87.80;;;;;;4939482;28;20418;-77
2022/03/18 06:44:22;;;;;;;28.60;13.38;;;3.20;91.80;;;;;;4916539;28;20406;-77
2022/03/18 06:46:48;;;;;;;29.10;14.70;;;3.30;95.80;;;;;;4932400;28;20404;-76
2022/03/18 06:49:14;;;;;;;23.67;13.52;;;3.30;95.90;;;;;;4932479;28;20823;-77
2022/03/18 06:51:40;;;;;;;31.30;13.27;;;3.50;99.90;;;;;;4917004;28;20404;-77
2022/03/18 06:54:06;;;;;;;28.48;13.30;;;3.60;99.90;;;;;;4934216;29;20753;-77
2022/03/18 06:56:32;;;;;;;25.53;12.63;;;3.80;99.90;;;;;;4933908;28;20402;-77
2022/03/18 06:58:58;;;;;;;41.22;15.75;;;4.10;90.00;;;;;;4916111;28;20825;-77
2022/03/18 07:01:24;;;;;;;36.47;19.83;;;4.40;79.90;;;;;;4942612;28;20452;-77
2022/03/18 07:03:50;;;;;;;36.30;15.93;;;4.50;73.70;;;;;;4932972;28;20408;-76
2022/03/18 07:06:16;;;;;;;27.02;12.35;;;4.80;70.80;;;;;;4933963;28;20395;-77
2022/03/18 07:08:43;;;;;;;19.55;10.40;;;4.90;69.10;;;;;;4936454;28;20408;-78
2022/03/18 07:11:13;;;;;;;33.07;10.60;;;4.90;63.60;;;;;;4935626;28;20403;-77
2022/03/18 07:13:43;;;;;;;23.27;10.68;;;5.00;62.90;;;;;;4929067;29;20422;-78
2022/03/18 07:18:53;;;;;;;21.20;10.27;;;5.00;68.80;;;;;;4944245;28;20793;-76
2022/03/18 07:21:19;;;;;;;21.77;9.63;;;5.30;65.40;;;;;;4927022;28;20407;-76
2022/03/18 07:23:45;;;;;;;19.52;9.07;;;5.40;61.50;;;;;;4932826;28;20829;-76
2022/03/18 07:26:10;;;;;;;23.58;10.20;;;5.50;64.90;;;;;;4931641;28;20763;-75
2022/03/18 07:28:36;;;;;;;22.60;9.57;;;5.60;57.80;;;;;;4932086;28;20493;-76
2022/03/18 07:31:01;;;;;;;18.00;10.10;;;5.70;59.90;;;;;;4930933;28;20404;-77
2022/03/18 07:33:27;;;;;;;20.23;10.00;;;5.70;56.90;;;;;;4931730;28;20813;-78
2022/03/18 07:35:53;;;;;;;21.33;9.97;;;5.70;62.00;;;;;;4934962;28;20410;-76
2022/03/18 07:38:20;;;;;;;19.30;9.68;;;5.80;60.80;;;;;;4943385;28;20443;-77
2022/03/18 07:40:46;;;;;;;15.20;9.15;;;6.00;56.40;;;;;;4925326;28;20765;-76
2022/03/18 07:43:11;;;;;;;22.88;9.55;;;6.20;53.50;;;;;;4913653;28;20411;-79
2022/03/18 07:45:37;;;;;;;26.63;9.80;;;6.30;51.80;;;;;;4933013;28;20407;-77
2022/03/18 07:48:05;;;;;;;22.00;9.87;;;6.40;51.20;;;;;;4932816;28;20453;-80
2022/03/18 07:50:32;;;;;;;21.92;9.85;;;6.50;50.50;;;;;;4931752;28;20422;-77
2022/03/18 07:53:00;;;;;;;20.48;8.88;;;6.60;49.60;;;;;;4933677;28;20411;-79
2022/03/18 07:55:28;;;;;;;21.75;9.25;;;6.70;49.90;;;;;;4932459;28;21059;-75
2022/03/18 07:57:55;;;;;;;18.20;8.93;;;6.80;48.30;;;;;;4938765;28;20429;-74
2022/03/18 08:00:21;;;;;;;19.98;8.63;;;6.90;47.50;;;;;;4941052;28;20411;-74
2022/03/18 08:02:48;;;;;;;20.60;8.13;;;7.00;47.20;;;;;;4930663;28;20489;-74
2022/03/18 08:05:14;;;;;;;25.60;8.87;;;7.10;44.50;;;;;;4930258;29;20438;-73
2022/03/18 08:07:41;;;;;;;18.55;8.50;;;7.20;46.80;;;;;;4930578;28;20481;-75
2022/03/18 08:10:08;;;;;;;21.88;7.80;;;7.40;45.70;;;;;;4935013;29;20439;-74
2022/03/18 08:12:35;;;;;;;17.88;8.60;;;7.50;45.70;;;;;;4913233;28;20404;-74
2022/03/18 08:15:05;;;;;;;19.83;8.25;;;7.60;43.50;;;;;;4912896;28;20991;-75
2022/03/18 08:17:31;;;;;;;17.92;7.20;;;7.80;42.70;;;;;;4930960;28;20415;-74
2022/03/18 08:19:57;;;;;;;18.98;7.40;;;8.00;40.10;;;;;;4936190;28;20801;-72
2022/03/18 08:22:23;;;;;;;19.35;7.70;;;8.10;38.10;;;;;;4935549;29;20420;-73
2022/03/18 08:24:49;;;;;;;15.67;5.93;;;8.10;38.50;;;;;;4934739;28;20897;-74
2022/03/18 08:27:16;;;;;;;19.58;6.57;;;8.30;37.30;;;;;;4916364;28;20756;-74
2022/03/18 08:29:42;;;;;;;18.35;6.78;;;8.30;37.70;;;;;;4935185;29;20416;-75
2022/03/18 08:32:12;;;;;;;12.38;6.32;;;8.50;35.90;;;;;;4918479;28;20416;-76
2022/03/18 08:34:37;;;;;;;17.10;6.47;;;8.60;37.50;;;;;;4941103;28;20895;-75
2022/03/18 08:37:05;;;;;;;13.10;6.20;;;8.70;35.30;;;;;;4954631;28;20492;-75
2022/03/18 08:39:33;;;;;;;22.33;6.30;;;8.80;35.90;;;;;;4951394;28;20403;-76
2022/03/18 08:41:59;;;;;;;16.60;5.45;;;8.90;35.20;;;;;;4939970;29;20740;-75
2022/03/18 08:44:25;;;;;;;17.30;6.20;;;9.00;34.30;;;;;;4941863;28;20412;-77
2022/03/18 08:46:51;;;;;;;14.60;5.20;;;9.20;33.40;;;;;;4955697;28;20400;-75
2022/03/18 08:49:16;;;;;;;11.98;3.80;;;9.40;30.50;;;;;;4945836;28;20416;-76
2022/03/18 08:51:42;;;;;;;7.13;3.70;;;9.50;29.80;;;;;;4958813;28;20494;-76
2022/03/18 08:54:08;;;;;;;12.77;4.20;;;9.60;25.40;;;;;;4953367;28;20423;-75
2022/03/18 08:56:34;;;;;;;6.70;3.00;;;9.70;25.90;;;;;;4945201;28;20956;-75
2022/03/18 08:59:06;;;;;;;7.13;3.28;;;9.80;24.10;;;;;;4933980;29;20404;-76
2022/03/18 09:01:33;;;;;;;6.77;2.97;;;9.90;22.70;;;;;;4927190;29;20737;-76
2022/03/18 09:03:58;;;;;;;5.75;2.85;;;9.90;22.00;;;;;;4916123;28;20422;-76
2022/03/18 09:06:24;;;;;;;5.90;2.70;;;9.90;21.90;;;;;;4933362;28;20940;-76
2022/03/18 09:08:50;;;;;;;8.23;2.60;;;9.90;20.00;;;;;;4933981;29;20404;-76
2022/03/18 09:11:15;;;;;;;8.07;2.90;;;9.90;20.80;;;;;;4936801;28;21106;-76
2022/03/18 09:13:41;;;;;;;9.65;2.70;;;10.00;21.60;;;;;;4936773;29;20937;-76
2022/03/18 09:16:06;;;;;;;9.17;2.90;;;10.10;20.50;;;;;;4937922;28;20410;-76
2022/03/18 09:18:32;;;;;;;7.63;2.53;;;10.30;19.90;;;;;;4935355;28;20892;-76
2022/03/18 09:20:58;;;;;;;8.60;2.50;;;10.30;20.00;;;;;;4932130;28;20411;-77
2022/03/18 09:23:24;;;;;;;5.50;2.70;;;10.50;19.50;;;;;;4937788;28;20411;-76
2022/03/18 09:25:50;;;;;;;9.55;2.75;;;10.60;19.70;;;;;;4936200;28;20720;-76
2022/03/18 09:28:16;;;;;;;5.45;2.85;;;10.70;19.00;;;;;;4933585;28;20411;-77
2022/03/18 09:30:42;;;;;;;10.30;3.15;;;10.70;19.20;;;;;;4933033;28;20478;-76
2022/03/18 09:33:09;;;;;;;8.20;2.60;;;10.70;19.20;;;;;;4932348;28;20824;-76
2022/03/18 09:35:35;;;;;;;4.83;2.50;;;10.70;18.30;;;;;;4929711;28;20494;-76
2022/03/18 09:38:01;;;;;;;9.82;3.30;;;10.70;17.70;;;;;;4935161;28;20804;-77
2022/03/18 09:40:27;;;;;;;9.93;3.20;;;10.60;18.40;;;;;;4934520;28;20400;-75
2022/03/18 09:42:57;;;;;;;7.33;3.23;;;10.80;18.70;;;;;;4933289;28;20473;-76
2022/03/18 09:45:24;;;;;;;8.30;3.30;;;10.90;18.70;;;;;;4931991;29;20738;-75
2022/03/18 09:47:51;;;;;;;9.93;3.75;;;11.00;18.20;;;;;;4932511;28;20396;-76
2022/03/18 09:50:17;;;;;;;7.00;3.40;;;11.00;18.80;;;;;;4914198;29;20419;-75
2022/03/18 09:52:44;;;;;;;9.70;3.30;;;11.00;18.90;;;;;;4941041;28;20974;-77
2022/03/18 09:55:09;;;;;;;9.45;3.22;;;11.00;18.80;;;;;;4933163;28;20403;-76
2022/03/18 09:57:35;;;;;;;8.63;3.85;;;10.90;18.70;;;;;;4932099;28;20427;-77
2022/03/18 10:00:01;;;;;;;10.65;3.20;;;11.00;19.10;;;;;;4931919;28;20403;-76
2022/03/18 10:02:34;;;;;;;4.60;3.20;;;11.10;18.20;;;;;;4945893;28;20511;-78
2022/03/18 10:05:03;;;;;;;6.32;2.95;;;11.20;18.20;;;;;;4913240;28;20439;-75
2022/03/18 10:07:29;;;;;;;9.10;2.72;;;11.40;16.50;;;;;;4928605;28;20491;-75
2022/03/18 10:10:06;;;;;;;5.18;3.10;;;11.40;17.30;;;;;;4943769;28;20400;-75
2022/03/18 10:12:37;;;;;;;5.50;2.70;;;11.50;16.30;;;;;;4939556;28;20443;-76
2022/03/18 10:15:24;;;;;;;5.47;2.57;;;11.40;16.20;;;;;;4932325;28;20419;-75
2022/03/18 10:17:50;;;;;;;7.80;3.15;;;11.30;16.10;;;;;;4936028;28;20764;-75
2022/03/18 10:20:38;;;;;;;5.68;3.25;;;11.30;16.90;;;;;;4914774;28;20404;-74
2022/03/18 10:23:15;;;;;;;13.20;3.70;;;11.40;17.70;;;;;;4931252;28;20446;-75
2022/03/18 10:25:54;;;;;;;9.70;3.90;;;11.60;18.50;;;;;;4931608;28;20400;-75
2022/03/18 10:28:36;;;;;;;6.68;3.55;;;11.70;17.30;;;;;;4913632;29;20430;-74
2022/03/18 10:31:15;;;;;;;7.93;3.30;;;11.90;17.00;;;;;;4930613;29;20892;-75
2022/03/18 10:37:05;;;;;;;12.70;4.50;;;11.90;15.80;;;;;;4930038;29;20402;-75
2022/03/18 10:39:35;;;;;;;7.90;2.83;;;11.90;16.10;;;;;;4913844;28;20864;-75
2022/03/18 10:42:20;;;;;;;4.05;2.95;;;12.00;16.40;;;;;;4931116;29;20509;-75
2022/03/18 10:44:49;;;;;;;5.00;2.80;;;12.10;14.20;;;;;;4929754;29;20404;-75
2022/03/18 10:47:31;;;;;;;9.13;3.10;;;12.10;14.90;;;;;;4925998;28;20777;-75
2022/03/18 10:50:12;;;;;;;5.35;3.00;;;12.00;13.60;;;;;;4927800;29;20417;-74
2022/03/18 10:52:39;;;;;;;5.93;2.50;;;12.00;14.10;;;;;;4931880;28;20404;-74
2022/03/18 10:55:38;;;;;;;8.07;2.90;;;11.90;14.10;;;;;;4930641;28;20487;-75
2022/03/18 10:58:11;;;;;;;7.40;2.90;;;12.10;14.90;;;;;;4933207;29;20411;-75
2022/03/18 11:00:43;;;;;;;13.20;2.90;;;12.30;13.70;;;;;;4939823;28;20408;-75
2022/03/18 11:03:09;;;;;;;6.75;2.40;;;12.40;12.60;;;;;;4932896;28;20750;-75
2022/03/18 11:05:37;;;;;;;5.28;2.97;;;12.30;12.20;;;;;;4931920;29;20435;-76
2022/03/18 11:08:05;;;;;;;9.23;3.50;;;12.50;13.50;;;;;;4930809;28;20408;-77
2022/03/18 11:13:19;;;;;;;7.15;3.25;;;12.70;13.90;;;;;;4931470;29;20503;-76
2022/03/18 11:15:46;;;;;;;9.52;3.30;;;12.80;14.90;;;;;;4931860;29;20498;-76
2022/03/18 11:18:13;;;;;;;5.07;3.10;;;12.80;13.70;;;;;;4941367;28;20412;-76
2022/03/18 11:20:44;;;;;;;6.50;3.33;;;12.60;13.60;;;;;;4920068;28;20915;-76
2022/03/18 11:23:16;;;;;;;8.13;3.50;;;12.60;13.40;;;;;;4932782;28;20908;-76
2022/03/18 11:25:49;;;;;;;6.53;3.22;;;12.60;13.60;;;;;;4936590;28;20483;-75
2022/03/18 11:28:17;;;;;;;6.18;2.80;;;12.70;13.40;;;;;;4927853;29;20901;-77
2022/03/18 11:30:44;;;;;;;5.70;2.50;;;12.80;13.60;;;;;;4928166;29;20439;-76
2022/03/18 11:33:10;;;;;;;7.78;3.15;;;12.90;13.70;;;;;;4931644;28;20450;-75
2022/03/18 11:35:51;;;;;;;5.15;3.03;;;13.00;12.50;;;;;;4945366;28;20515;-76
2022/03/18 11:38:17;;;;;;;4.60;2.50;;;13.00;12.00;;;;;;4929761;29;20404;-76
2022/03/18 11:41:02;;;;;;;4.70;2.05;;;13.00;11.30;;;;;;4929467;28;20448;-75
2022/03/18 11:43:32;;;;;;;3.83;1.73;;;13.10;10.20;;;;;;4934595;28;20415;-76
2022/03/18 11:46:13;;;;;;;3.35;2.05;;;13.00;10.00;;;;;;4946083;28;20799;-75
2022/03/18 11:49:05;;;;;;;4.18;2.65;;;13.00;9.90;;;;;;4940495;28;20402;-75
2022/03/18 11:51:37;;;;;;;3.10;2.28;;;13.00;11.80;;;;;;4940851;29;20408;-75
2022/03/18 11:54:05;;;;;;;5.43;2.40;;;13.10;11.10;;;;;;4942210;29;20460;-76
2022/03/18 11:56:41;;;;;;;6.35;2.50;;;13.10;10.60;;;;;;4939172;28;20464;-76
2022/03/18 11:59:25;;;;;;;4.57;2.20;;;13.10;10.70;;;;;;4934359;29;20404;-75
2022/03/18 12:01:52;;;;;;;5.10;2.15;;;13.10;9.00;;;;;;4934118;29;20419;-76
2022/03/18 12:04:33;;;;;;;5.80;2.97;;;13.10;9.80;;;;;;4943132;28;20482;-76
2022/03/18 12:07:27;;;;;;;4.03;2.20;;;13.20;10.90;;;;;;4937909;29;20406;-76
2022/03/18 12:10:03;;;;;;;4.75;2.70;;;13.40;10.50;;;;;;4943302;28;20403;-76
2022/03/18 12:12:34;;;;;;;4.40;2.40;;;13.40;9.70;;;;;;4923568;28;20435;-76
2022/03/18 12:15:17;;;;;;;3.53;2.55;;;13.40;9.30;;;;;;4942299;28;20400;-76
2022/03/18 12:17:52;;;;;;;6.63;2.70;;;13.40;9.90;;;;;;4945291;28;20407;-75
2022/03/18 12:20:23;;;;;;;6.25;2.95;;;13.70;9.20;;;;;;4931509;28;20490;-76
2022/03/18 12:22:51;;;;;;;6.03;3.10;;;13.80;9.20;;;;;;4929958;29;20447;-75
2022/03/18 12:25:17;;;;;;;11.07;3.00;;;13.70;9.20;;;;;;4933814;28;20779;-75
2022/03/18 12:27:44;;;;;;;4.40;2.90;;;13.80;10.50;;;;;;4931901;28;20396;-76
2022/03/18 12:30:19;;;;;;;7.82;2.78;;;13.90;9.90;;;;;;4936312;28;20407;-77
2022/03/18 12:33:01;;;;;;;5.75;3.17;;;14.00;9.80;;;;;;4938005;28;20403;-77
2022/03/18 12:35:27;;;;;;;8.05;3.08;;;14.10;9.80;;;;;;4932249;28;20407;-75
2022/03/18 12:38:10;;;;;;;6.03;3.30;;;14.10;8.60;;;;;;4932772;28;20431;-75
2022/03/18 12:40:43;;;;;;;7.03;3.13;;;14.10;9.10;;;;;;4932539;28;20410;-76
2022/03/18 12:43:10;;;;;;;7.50;2.90;;;14.00;8.50;;;;;;4932241;28;20419;-77
2022/03/18 12:45:43;;;;;;;8.32;3.20;;;14.10;8.20;;;;;;4931548;28;20408;-76
2022/03/18 12:48:17;;;;;;;9.65;3.15;;;14.00;7.50;;;;;;4931579;29;20483;-76
2022/03/18 12:50:51;;;;;;;4.93;3.08;;;14.00;7.30;;;;;;4931578;29;20538;-76
2022/03/18 12:53:20;;;;;;;13.07;3.67;;;14.10;7.60;;;;;;4929980;29;20454;-78
2022/03/18 12:55:54;;;;;;;7.07;3.40;;;14.10;7.50;;;;;;4932597;29;20429;-75
2022/03/18 12:58:21;;;;;;;7.27;3.63;;;14.20;7.30;;;;;;4913025;28;20416;-75
2022/03/18 13:00:54;;;;;;;6.38;2.78;;;14.20;7.30;;;;;;4937782;28;20434;-76
2022/03/18 13:03:23;;;;;;;5.17;3.00;;;14.10;6.20;;;;;;4912536;28;21092;-76
2022/03/18 13:05:52;;;;;;;7.13;3.00;;;14.10;6.20;;;;;;4931110;29;20396;-76